Time;durP1;ratioP1;P1;durP2;ratioP2;P2;SDS_P1;SDS_P2;PMS_P1;PMS_P2;Temp;Humidity;BMP_temperature;BMP_pressure;BME280_temperature;BME280_humidity;BME280_pressure;Samples;Min_cycle;Max_cycle;Signal;HPM_P1;HPM_P2
2022/01/29 00:01:22;;;;;;;2.08;1.25;;;17.30;58.80;;;;;;4964672;28;45084;-87
2022/01/29 00:03:51;;;;;;;1.75;1.20;;;17.00;57.20;;;;;;4964030;28;46573;-87
2022/01/29 00:06:18;;;;;;;2.20;1.40;;;16.50;57.60;;;;;;4966327;28;45259;-88
2022/01/29 00:08:47;;;;;;;2.22;1.40;;;17.00;58.80;;;;;;4964369;28;45186;-87
2022/01/29 00:11:17;;;;;;;2.30;1.55;;;17.20;56.40;;;;;;4966413;28;45179;-89
2022/01/29 00:13:45;;;;;;;2.65;1.23;;;17.10;58.10;;;;;;4967270;28;47388;-88
2022/01/29 00:16:13;;;;;;;1.58;1.17;;;17.00;57.80;;;;;;4963602;28;45183;-88
2022/01/29 00:18:41;;;;;;;1.30;0.80;;;17.50;56.20;;;;;;4972898;28;45221;-88
2022/01/29 00:21:12;;;;;;;1.75;1.30;;;17.20;58.10;;;;;;4967612;28;45175;-88
2022/01/29 00:23:41;;;;;;;1.45;1.00;;;17.10;57.70;;;;;;4959645;28;47581;-88
2022/01/29 00:26:12;;;;;;;2.33;1.48;;;18.00;58.00;;;;;;4963901;28;45297;-88
2022/01/29 00:28:42;;;;;;;2.58;1.20;;;17.30;58.20;;;;;;4969618;28;45228;-87
2022/01/29 00:31:10;;;;;;;1.80;1.10;;;17.30;57.50;;;;;;4965470;28;45059;-88
2022/01/29 00:33:39;;;;;;;1.05;0.95;;;18.90;60.70;;;;;;4973521;28;45808;-88
2022/01/29 00:36:08;;;;;;;2.17;1.30;;;17.00;57.20;;;;;;4959758;28;45302;-88
2022/01/29 00:38:35;;;;;;;1.42;1.20;;;17.10;57.00;;;;;;4960114;28;45171;-88
2022/01/29 00:41:03;;;;;;;1.70;1.25;;;17.70;59.00;;;;;;4961069;28;45142;-86
2022/01/29 00:43:35;;;;;;;1.83;1.30;;;18.10;59.50;;;;;;4967326;28;45590;-88
2022/01/29 00:46:05;;;;;;;2.42;1.40;;;17.70;57.00;;;;;;4959664;28;46239;-88
2022/01/29 00:48:33;;;;;;;2.20;1.63;;;17.10;56.40;;;;;;4959946;28;45465;-87
2022/01/29 00:51:02;;;;;;;4.20;2.17;;;17.10;57.80;;;;;;4962418;28;45175;-85
2022/01/29 00:53:33;;;;;;;8.75;4.35;;;19.00;59.70;;;;;;4958527;28;46731;-88
2022/01/29 00:56:05;;;;;;;11.80;6.18;;;17.00;56.80;;;;;;4962045;28;45168;-86
2022/01/29 00:58:33;;;;;;;11.40;6.03;;;17.10;54.80;;;;;;4948277;28;45525;-87
2022/01/29 01:01:06;;;;;;;15.00;5.90;;;17.00;58.30;;;;;;4959567;28;45464;-87
2022/01/29 01:03:34;;;;;;;14.05;6.78;;;15.20;53.20;;;;;;4965685;28;47630;-87
2022/01/29 01:06:08;;;;;;;14.32;6.10;;;15.60;55.50;;;;;;4967095;28;45138;-88
2022/01/29 01:08:37;;;;;;;11.80;5.65;;;15.40;56.30;;;;;;4962306;28;45331;-89
2022/01/29 01:11:06;;;;;;;12.00;4.95;;;17.00;57.80;;;;;;4968478;28;45326;-88
2022/01/29 01:13:44;;;;;;;9.55;4.45;;;17.10;56.00;;;;;;4960333;28;47618;-88
2022/01/29 01:16:15;;;;;;;9.60;4.55;;;17.40;58.40;;;;;;4961268;28;45061;-89
2022/01/29 01:18:44;;;;;;;9.27;4.63;;;17.00;53.90;;;;;;4965204;28;45252;-88
2022/01/29 01:21:12;;;;;;;7.32;4.28;;;17.10;53.90;;;;;;4970475;28;45012;-88
2022/01/29 01:23:43;;;;;;;12.57;4.47;;;17.20;58.10;;;;;;4958523;28;46564;-87
2022/01/29 01:26:13;;;;;;;10.30;4.78;;;17.60;54.30;;;;;;4970924;28;45471;-87
2022/01/29 01:28:41;;;;;;;7.93;4.22;;;15.70;56.80;;;;;;4969830;28;45278;-87
2022/01/29 01:31:11;;;;;;;9.45;4.63;;;17.00;57.50;;;;;;4959791;28;45234;-87
2022/01/29 01:33:42;;;;;;;9.57;3.88;;;17.10;58.50;;;;;;4965002;28;45683;-88
2022/01/29 01:36:10;;;;;;;8.68;4.03;;;17.20;56.90;;;;;;4959763;28;45303;-88
2022/01/29 01:38:47;;;;;;;7.93;4.43;;;16.50;56.40;;;;;;4973257;28;45339;-89
2022/01/29 01:41:23;;;;;;;9.02;4.15;;;15.00;53.10;;;;;;4960644;28;45462;-88
2022/01/29 01:43:52;;;;;;;7.60;3.92;;;17.30;58.30;;;;;;4962808;28;47788;-88
2022/01/29 01:46:22;;;;;;;7.20;3.33;;;16.80;56.50;;;;;;4964057;28;46134;-88
2022/01/29 01:48:53;;;;;;;6.70;3.65;;;17.10;59.50;;;;;;4959671;28;45350;-88
2022/01/29 01:51:21;;;;;;;9.30;3.85;;;17.00;56.40;;;;;;4959769;28;45271;-88
2022/01/29 01:53:53;;;;;;;7.32;3.45;;;17.20;58.80;;;;;;4964054;28;46077;-88
2022/01/29 01:56:22;;;;;;;7.43;3.53;;;17.10;53.40;;;;;;4964807;28;45152;-88
2022/01/29 01:58:50;;;;;;;8.98;3.50;;;17.40;58.70;;;;;;4958495;28;45219;-88
2022/01/29 02:01:20;;;;;;;7.28;3.50;;;17.40;58.70;;;;;;4952617;28;45309;-88
2022/01/29 02:03:48;;;;;;;7.45;3.78;;;17.20;57.00;;;;;;4946923;28;48474;-88
2022/01/29 02:06:19;;;;;;;9.82;3.60;;;18.60;59.30;;;;;;4953272;28;45239;-88
2022/01/29 02:08:59;;;;;;;5.82;3.47;;;17.00;57.70;;;;;;4958100;28;45207;-89
2022/01/29 02:11:28;;;;;;;5.50;3.03;;;17.10;55.00;;;;;;4971433;28;44822;-88
2022/01/29 02:13:58;;;;;;;5.85;2.97;;;18.30;58.80;;;;;;4972011;28;45460;-88
2022/01/29 02:16:30;;;;;;;8.05;3.60;;;17.30;57.40;;;;;;4958038;28;45150;-88
2022/01/29 02:19:01;;;;;;;7.35;3.55;;;16.10;59.50;;;;;;4970090;28;45112;-87
2022/01/29 02:21:30;;;;;;;8.40;3.42;;;16.90;58.80;;;;;;4972018;28;44917;-88
2022/01/29 02:23:59;;;;;;;7.18;3.15;;;17.40;57.70;;;;;;4961827;28;47660;-88
2022/01/29 02:26:27;;;;;;;5.47;2.85;;;17.20;55.30;;;;;;4939187;28;45293;-88
2022/01/29 02:28:57;;;;;;;5.60;2.70;;;17.40;56.90;;;;;;4949898;28;45335;-88
2022/01/29 02:31:26;;;;;;;4.80;2.95;;;17.00;53.30;;;;;;4971539;28;45353;-87
2022/01/29 02:33:54;;;;;;;6.40;2.60;;;16.00;57.80;;;;;;4962016;28;47278;-88
2022/01/29 02:36:22;;;;;;;6.43;3.03;;;17.00;57.80;;;;;;4966055;28;45947;-87
2022/01/29 02:38:52;;;;;;;5.35;3.20;;;18.60;60.20;;;;;;4958816;28;45162;-87
2022/01/29 02:41:22;;;;;;;5.30;2.67;;;19.40;60.00;;;;;;4956695;28;45282;-88
2022/01/29 02:43:51;;;;;;;4.82;2.65;;;17.70;59.40;;;;;;4954726;28;46465;-88
2022/01/29 02:46:29;;;;;;;4.63;3.08;;;17.20;58.40;;;;;;4961402;28;45172;-88
2022/01/29 02:48:57;;;;;;;5.60;3.10;;;16.80;57.00;;;;;;4956290;28;45192;-88
2022/01/29 02:51:25;;;;;;;5.80;2.75;;;16.80;58.20;;;;;;4957067;28;45159;-87
2022/01/29 02:53:55;;;;;;;5.10;2.97;;;17.00;59.00;;;;;;4972057;28;46141;-88
2022/01/29 02:56:24;;;;;;;6.03;2.88;;;16.90;58.10;;;;;;4954730;28;45244;-88
2022/01/29 02:58:53;;;;;;;5.75;2.78;;;17.10;59.00;;;;;;4957975;28;45238;-88
2022/01/29 03:01:23;;;;;;;4.40;2.45;;;17.10;59.30;;;;;;4957676;28;45327;-88
2022/01/29 03:03:52;;;;;;;5.57;2.53;;;16.80;54.90;;;;;;4972821;28;45612;-87
2022/01/29 03:06:24;;;;;;;5.07;2.75;;;17.00;53.50;;;;;;4956424;28;45239;-88
2022/01/29 03:08:56;;;;;;;4.63;2.50;;;17.20;58.70;;;;;;4956961;28;45217;-87
2022/01/29 03:11:24;;;;;;;3.78;2.60;;;17.30;55.60;;;;;;4956728;28;45031;-88
2022/01/29 03:13:57;;;;;;;4.40;2.30;;;18.30;60.10;;;;;;4956401;28;46481;-87
2022/01/29 03:16:27;;;;;;;4.30;2.33;;;18.00;58.30;;;;;;4956150;28;45223;-87
2022/01/29 03:18:58;;;;;;;4.63;2.45;;;15.40;56.20;;;;;;4957321;28;45248;-87
2022/01/29 03:21:25;;;;;;;3.55;2.20;;;18.50;59.10;;;;;;4955180;28;45551;-88
2022/01/29 03:23:56;;;;;;;5.38;2.28;;;16.80;57.90;;;;;;4966766;28;45562;-88
2022/01/29 03:26:24;;;;;;;3.72;2.20;;;17.00;56.90;;;;;;4964204;28;45180;-88
2022/01/29 03:28:52;;;;;;;4.75;2.22;;;17.00;58.50;;;;;;4964842;28;44858;-87
2022/01/29 03:31:26;;;;;;;4.95;2.40;;;16.90;57.40;;;;;;4957653;28;45113;-87
2022/01/29 03:33:54;;;;;;;3.05;1.80;;;17.00;59.30;;;;;;4955786;28;47511;-88
2022/01/29 03:36:21;;;;;;;3.95;2.05;;;18.50;58.10;;;;;;4954765;28;45551;-87
2022/01/29 03:38:51;;;;;;;2.30;1.65;;;17.10;59.30;;;;;;4965685;28;45192;-87
2022/01/29 03:41:21;;;;;;;5.32;2.17;;;17.10;59.20;;;;;;4955880;28;45239;-87
2022/01/29 03:43:52;;;;;;;3.65;2.05;;;17.00;53.90;;;;;;4975047;28;45804;-87
2022/01/29 03:46:20;;;;;;;4.25;1.77;;;17.60;60.50;;;;;;4957991;28;45405;-88
2022/01/29 03:48:48;;;;;;;2.30;1.80;;;17.10;59.90;;;;;;4972100;28;45244;-86
2022/01/29 03:51:16;;;;;;;4.32;2.20;;;17.00;60.00;;;;;;4956648;28;45148;-87
2022/01/29 03:53:43;;;;;;;3.70;1.83;;;18.50;60.80;;;;;;4962102;28;45444;-86
2022/01/29 03:56:12;;;;;;;3.25;1.80;;;17.00;54.70;;;;;;4955804;28;45322;-87
2022/01/29 03:58:41;;;;;;;2.80;1.70;;;17.50;60.10;;;;;;4964627;28;45272;-87
2022/01/29 04:01:09;;;;;;;3.58;2.05;;;15.30;56.00;;;;;;4957780;28;45322;-87
2022/01/29 04:03:37;;;;;;;2.03;1.60;;;17.30;59.20;;;;;;4953310;28;47297;-87
2022/01/29 04:06:04;;;;;;;3.75;1.88;;;19.00;61.10;;;;;;4960194;28;45561;-87
2022/01/29 04:08:39;;;;;;;3.00;1.80;;;17.00;57.30;;;;;;4971539;28;45246;-87
2022/01/29 04:11:06;;;;;;;3.75;1.85;;;17.00;56.40;;;;;;4957697;28;44830;-88
2022/01/29 04:13:36;;;;;;;2.50;1.65;;;17.70;59.00;;;;;;4970504;28;47639;-87
2022/01/29 04:16:08;;;;;;;2.22;1.48;;;17.00;60.30;;;;;;4967814;28;45246;-87
2022/01/29 04:18:36;;;;;;;3.92;1.60;;;18.70;59.30;;;;;;4962195;28;45361;-87
2022/01/29 04:21:06;;;;;;;2.20;1.70;;;16.90;60.70;;;;;;4957725;28;45346;-87
2022/01/29 04:23:33;;;;;;;2.60;1.60;;;17.00;59.00;;;;;;4957175;28;47436;-87
2022/01/29 04:26:01;;;;;;;2.47;1.63;;;17.00;56.90;;;;;;4960071;28;45232;-87
2022/01/29 04:28:34;;;;;;;1.58;1.25;;;17.10;60.10;;;;;;4965034;28;45161;-86
2022/01/29 04:31:06;;;;;;;3.60;1.73;;;19.20;57.80;;;;;;4966194;28;45368;-88
2022/01/29 04:33:36;;;;;;;2.78;1.48;;;18.80;61.20;;;;;;4960989;28;45468;-87
2022/01/29 04:36:07;;;;;;;2.58;1.75;;;17.60;59.20;;;;;;4967392;28;45586;-87
2022/01/29 04:38:35;;;;;;;3.20;1.50;;;17.00;60.50;;;;;;4956982;28;45227;-89
2022/01/29 04:41:04;;;;;;;3.70;1.42;;;16.60;57.60;;;;;;4956962;28;45500;-87
2022/01/29 04:43:32;;;;;;;3.25;1.48;;;19.10;62.30;;;;;;4966172;28;47588;-88
2022/01/29 04:46:02;;;;;;;2.33;1.30;;;18.70;61.90;;;;;;4956418;28;45311;-87
2022/01/29 04:48:30;;;;;;;2.88;1.38;;;17.00;54.60;;;;;;4943967;28;45398;-87
2022/01/29 04:51:00;;;;;;;2.20;1.40;;;17.40;59.30;;;;;;4975020;28;45198;-87
2022/01/29 04:53:27;;;;;;;2.53;1.42;;;17.10;54.60;;;;;;4956641;28;45452;-86
2022/01/29 04:55:55;;;;;;;1.73;1.10;;;17.20;58.30;;;;;;4962195;28;45212;-87
2022/01/29 04:58:22;;;;;;;3.97;1.75;;;17.20;61.40;;;;;;4966033;28;45637;-87
2022/01/29 05:00:50;;;;;;;1.58;1.25;;;17.10;57.70;;;;;;4957654;28;45357;-87
2022/01/29 05:03:17;;;;;;;2.10;1.20;;;16.90;56.20;;;;;;4957681;28;47098;-87
2022/01/29 05:05:45;;;;;;;2.72;1.48;;;16.90;58.20;;;;;;4956383;28;45542;-87
2022/01/29 05:08:14;;;;;;;1.70;1.30;;;16.90;59.80;;;;;;4956807;28;45351;-87
2022/01/29 05:10:42;;;;;;;2.00;1.33;;;17.20;58.60;;;;;;4966665;28;45126;-87
2022/01/29 05:13:12;;;;;;;1.40;1.15;;;17.90;61.70;;;;;;4972441;28;47279;-86
2022/01/29 05:29:05;;;;;;;1.48;1.25;;;17.00;55.50;;;;;;5061735;28;45114;-88
2022/01/29 05:31:34;;;;;;;1.15;0.88;;;17.00;55.30;;;;;;5063035;28;45301;-89
2022/01/29 05:34:01;;;;;;;1.00;0.82;;;17.00;55.10;;;;;;5074236;28;48233;-88
2022/01/29 05:36:29;;;;;;;2.22;1.00;;;17.20;55.70;;;;;;5074431;28;45581;-88
2022/01/29 05:38:58;;;;;;;1.67;0.90;;;17.00;55.80;;;;;;5062539;28;45231;-88
2022/01/29 05:41:46;;;;;;;1.70;1.15;;;18.80;58.50;;;;;;5063364;28;45097;-88
2022/01/29 05:44:16;;;;;;;2.25;1.00;;;17.10;55.40;;;;;;5060910;28;47889;-89
2022/01/29 05:46:43;;;;;;;1.20;0.77;;;17.00;55.40;;;;;;5061412;28;45405;-88
2022/01/29 05:49:10;;;;;;;0.80;0.70;;;17.00;55.80;;;;;;5061648;28;45418;-88
2022/01/29 05:51:38;;;;;;;1.92;1.00;;;17.00;57.60;;;;;;5061203;28;45210;-88
2022/01/29 05:54:06;;;;;;;1.08;0.90;;;16.90;55.90;;;;;;5061376;28;47097;-88
2022/01/29 05:56:34;;;;;;;1.10;0.85;;;16.90;56.20;;;;;;5061767;28;45667;-88
2022/01/29 05:59:02;;;;;;;0.90;0.77;;;16.90;57.50;;;;;;5063673;28;45151;-88
2022/01/29 06:01:30;;;;;;;0.73;0.60;;;16.90;55.90;;;;;;5066095;28;45507;-88
2022/01/29 06:03:59;;;;;;;1.30;0.73;;;16.90;56.30;;;;;;5067300;28;45505;-88
2022/01/29 06:06:26;;;;;;;1.00;0.75;;;16.90;55.90;;;;;;5060214;28;45981;-88
2022/01/29 06:08:54;;;;;;;1.58;0.90;;;16.90;56.60;;;;;;5060293;28;45175;-88
2022/01/29 06:11:23;;;;;;;1.63;0.90;;;16.90;56.10;;;;;;5061101;28;45146;-88
2022/01/29 06:13:50;;;;;;;0.65;0.65;;;16.90;56.20;;;;;;5061043;28;45653;-87
2022/01/29 06:16:17;;;;;;;0.98;0.77;;;17.60;57.90;;;;;;5060340;28;45357;-88
2022/01/29 06:18:44;;;;;;;1.42;0.80;;;16.90;55.60;;;;;;5060023;28;45265;-88
2022/01/29 06:21:14;;;;;;;1.20;0.93;;;17.00;55.90;;;;;;5060217;28;45326;-88
2022/01/29 06:23:42;;;;;;;1.25;0.88;;;17.30;57.00;;;;;;5060514;28;46458;-88
2022/01/29 06:26:11;;;;;;;0.88;0.70;;;17.00;55.60;;;;;;5062815;28;45143;-88
2022/01/29 06:28:41;;;;;;;0.95;0.77;;;17.10;61.50;;;;;;5061857;28;45244;-87
2022/01/29 06:31:10;;;;;;;1.45;0.90;;;17.10;55.80;;;;;;5060822;28;45155;-88
2022/01/29 06:33:38;;;;;;;1.52;0.90;;;16.90;57.90;;;;;;5060988;28;45515;-88
2022/01/29 06:36:07;;;;;;;0.98;0.70;;;17.00;55.60;;;;;;5060051;28;45127;-88
2022/01/29 06:38:35;;;;;;;1.05;0.70;;;17.00;55.80;;;;;;5062351;28;45555;-88
2022/01/29 06:41:04;;;;;;;0.88;0.57;;;16.90;57.60;;;;;;5061952;28;45244;-89
2022/01/29 06:43:32;;;;;;;0.60;0.60;;;17.00;56.70;;;;;;5061115;28;45215;-88
2022/01/29 06:46:01;;;;;;;1.15;0.75;;;16.90;57.20;;;;;;5060646;28;45206;-88
2022/01/29 06:48:28;;;;;;;1.00;0.80;;;17.60;57.40;;;;;;5061302;28;45309;-89
2022/01/29 06:50:56;;;;;;;0.75;0.60;;;16.90;56.40;;;;;;5061454;28;45200;-88
2022/01/29 06:53:23;;;;;;;1.13;0.70;;;16.90;57.50;;;;;;5061499;28;46883;-88
2022/01/29 06:55:52;;;;;;;1.00;0.80;;;16.90;57.00;;;;;;5065275;28;45148;-89
2022/01/29 06:58:21;;;;;;;1.13;0.77;;;16.90;56.40;;;;;;5071403;28;44997;-88
2022/01/29 07:00:50;;;;;;;1.10;0.80;;;16.90;56.30;;;;;;5071771;28;45222;-88
2022/01/29 07:03:22;;;;;;;0.90;0.80;;;16.90;56.60;;;;;;5062414;28;45168;-88
2022/01/29 07:05:50;;;;;;;1.10;0.85;;;16.90;56.40;;;;;;5061928;28;45029;-89
2022/01/29 07:08:21;;;;;;;0.60;0.60;;;16.90;56.70;;;;;;5062662;28;45222;-89
2022/01/29 07:13:40;;;;;;;0.73;0.70;;;17.00;56.20;;;;;;5059497;28;45171;-88
2022/01/29 07:16:08;;;;;;;0.60;0.60;;;17.00;56.00;;;;;;5068051;28;45313;-88
2022/01/29 07:18:47;;;;;;;0.80;0.52;;;17.40;56.60;;;;;;5078315;28;45017;-88
2022/01/29 07:21:22;;;;;;;1.30;0.60;;;17.00;56.50;;;;;;5055298;28;45493;-87
2022/01/29 07:23:51;;;;;;;1.00;0.88;;;17.20;56.00;;;;;;5064411;28;45817;-86
2022/01/29 07:26:18;;;;;;;0.90;0.77;;;17.00;56.00;;;;;;5063122;28;45226;-88
2022/01/29 07:28:45;;;;;;;1.23;0.80;;;17.00;58.50;;;;;;5056607;28;45227;-86
2022/01/29 07:31:12;;;;;;;0.77;0.70;;;16.90;56.90;;;;;;5056109;28;45093;-85
2022/01/29 07:33:50;;;;;;;0.83;0.67;;;16.30;57.10;;;;;;5044454;28;47557;-86
2022/01/29 07:36:28;;;;;;;1.15;0.82;;;16.80;57.00;;;;;;5056063;28;45444;-85
2022/01/29 07:38:56;;;;;;;0.60;0.60;;;16.80;56.70;;;;;;5053263;28;45442;-86
2022/01/29 07:41:23;;;;;;;1.13;0.70;;;16.80;57.40;;;;;;5053804;28;45371;-85
2022/01/29 07:43:52;;;;;;;0.90;0.70;;;16.80;56.80;;;;;;5053341;28;47348;-85
2022/01/29 07:46:24;;;;;;;0.85;0.70;;;16.80;57.60;;;;;;5042824;28;45305;-87
2022/01/29 07:48:57;;;;;;;0.57;0.55;;;16.80;60.60;;;;;;5063512;28;45352;-86
2022/01/29 07:51:25;;;;;;;0.55;0.55;;;16.90;61.50;;;;;;5063793;28;45189;-86
2022/01/29 07:53:56;;;;;;;0.63;0.60;;;16.80;57.70;;;;;;5066922;28;47402;-87
2022/01/29 07:59:15;;;;;;;0.60;0.43;;;17.20;62.40;;;;;;5073015;28;45901;-88
2022/01/29 08:01:45;;;;;;;1.42;0.80;;;16.70;57.60;;;;;;5073609;28;45583;-88
2022/01/29 08:04:40;;;;;;;1.38;0.65;;;18.20;61.20;;;;;;5072999;28;47334;-88
2022/01/29 08:07:39;;;;;;;0.80;0.80;;;16.80;57.70;;;;;;5065946;28;45166;-87
2022/01/29 08:10:11;;;;;;;0.50;0.50;;;17.10;57.10;;;;;;5089388;28;44923;-87
2022/01/29 08:15:49;;;;;;;0.73;0.55;;;17.30;60.30;;;;;;5185001;27;45593;-86
2022/01/29 08:18:16;;;;;;;0.70;0.60;;;16.90;57.00;;;;;;5160708;27;45752;-87
2022/01/29 08:20:43;;;;;;;0.50;0.50;;;16.90;57.20;;;;;;5159341;27;45579;-88
2022/01/29 08:23:11;;;;;;;0.80;0.60;;;16.90;57.20;;;;;;5165189;27;45202;-87
2022/01/29 08:25:38;;;;;;;0.80;0.70;;;16.80;57.40;;;;;;5167561;27;47370;-87
2022/01/29 08:28:06;;;;;;;0.75;0.60;;;16.80;57.50;;;;;;5166925;27;45513;-87
2022/01/29 08:30:33;;;;;;;0.45;0.43;;;16.80;58.70;;;;;;5167035;27;45204;-88
2022/01/29 08:33:01;;;;;;;0.50;0.50;;;16.80;57.60;;;;;;5162859;27;45900;-86
2022/01/29 08:35:28;;;;;;;0.50;0.50;;;16.80;57.60;;;;;;5163917;27;47392;-87
2022/01/29 08:37:57;;;;;;;0.60;0.60;;;16.80;57.60;;;;;;5156245;27;47287;-87
2022/01/29 08:40:24;;;;;;;0.70;0.70;;;16.80;57.70;;;;;;5157534;27;45791;-88
2022/01/29 08:42:51;;;;;;;0.68;0.47;;;16.80;57.80;;;;;;5164221;27;45583;-87
2022/01/29 08:45:18;;;;;;;0.90;0.70;;;16.80;57.80;;;;;;5165141;27;46844;-88
2022/01/29 08:47:45;;;;;;;1.38;0.70;;;16.80;57.70;;;;;;5165153;27;45812;-87
2022/01/29 08:50:15;;;;;;;0.73;0.60;;;16.80;57.40;;;;;;5166145;27;45302;-86
2022/01/29 08:52:42;;;;;;;0.43;0.43;;;16.90;57.40;;;;;;5165522;27;45463;-87
2022/01/29 08:55:10;;;;;;;2.78;0.40;;;16.90;57.10;;;;;;5171173;27;47898;-86
2022/01/29 08:57:38;;;;;;;0.50;0.50;;;16.90;57.10;;;;;;5160711;27;45259;-86
2022/01/29 09:00:07;;;;;;;0.73;0.50;;;16.90;57.30;;;;;;5166946;27;45366;-86
2022/01/29 09:02:34;;;;;;;0.70;0.60;;;16.90;57.20;;;;;;5177778;27;45401;-87
2022/01/29 09:05:01;;;;;;;0.80;0.43;;;16.90;57.10;;;;;;5164768;27;48205;-86
2022/01/29 09:07:30;;;;;;;0.60;0.40;;;17.00;57.20;;;;;;5158925;27;46128;-86
2022/01/29 09:09:57;;;;;;;0.75;0.63;;;17.00;57.50;;;;;;5158831;27;45425;-86
2022/01/29 09:12:23;;;;;;;0.77;0.63;;;16.90;57.50;;;;;;5158664;27;45337;-86
2022/01/29 09:14:50;;;;;;;0.70;0.50;;;16.90;57.70;;;;;;5158990;27;47528;-86
2022/01/29 09:17:17;;;;;;;0.60;0.60;;;16.90;57.70;;;;;;5165976;27;45105;-86
2022/01/29 09:19:44;;;;;;;0.65;0.45;;;16.90;57.90;;;;;;5166057;27;45319;-86
2022/01/29 09:22:11;;;;;;;0.95;0.65;;;16.90;58.10;;;;;;5163505;27;45307;-86
2022/01/29 09:24:40;;;;;;;0.40;0.40;;;16.90;58.10;;;;;;5164932;27;45143;-86
2022/01/29 09:27:07;;;;;;;0.70;0.50;;;16.80;58.10;;;;;;5151180;27;45335;-86
2022/01/29 09:29:34;;;;;;;0.82;0.55;;;16.80;58.10;;;;;;5151019;27;45191;-86
2022/01/29 09:32:00;;;;;;;0.88;0.68;;;16.80;58.20;;;;;;5151190;27;45330;-86
2022/01/29 09:34:27;;;;;;;0.50;0.50;;;16.80;58.30;;;;;;5150676;27;45461;-86
2022/01/29 09:36:54;;;;;;;0.40;0.30;;;16.80;58.30;;;;;;5145130;27;45252;-86
2022/01/29 09:39:21;;;;;;;0.85;0.60;;;16.90;58.20;;;;;;5150988;27;45284;-85
2022/01/29 09:41:51;;;;;;;0.85;0.50;;;16.90;58.00;;;;;;5145454;27;45143;-86
2022/01/29 09:44:18;;;;;;;0.70;0.60;;;16.90;57.90;;;;;;5135619;27;47302;-86
2022/01/29 09:46:46;;;;;;;0.65;0.47;;;17.00;57.80;;;;;;5160807;27;46118;-86
2022/01/29 09:49:13;;;;;;;0.50;0.50;;;17.00;57.80;;;;;;5153625;27;45376;-86
2022/01/29 09:51:40;;;;;;;0.50;0.50;;;17.00;57.90;;;;;;5149593;27;45376;-86
2022/01/29 09:54:07;;;;;;;0.93;0.55;;;17.00;57.80;;;;;;5150545;27;48190;-86
2022/01/29 09:56:34;;;;;;;0.40;0.40;;;17.00;57.70;;;;;;5151391;27;45765;-87
2022/01/29 09:59:03;;;;;;;0.50;0.50;;;17.00;57.80;;;;;;5151110;27;45319;-85
2022/01/29 10:01:30;;;;;;;12.50;0.88;;;17.00;57.90;;;;;;5149983;27;45398;-90
2022/01/29 10:04:02;;;;;;;37.25;2.58;;;16.90;58.80;;;;;;5152972;27;46422;-82
2022/01/29 10:06:29;;;;;;;26.55;1.80;;;16.90;58.50;;;;;;5148969;27;45238;-82
2022/01/29 10:08:56;;;;;;;23.42;1.52;;;16.90;58.90;;;;;;5149056;27;45304;-85
2022/01/29 10:11:25;;;;;;;9.45;1.30;;;16.90;59.10;;;;;;5151226;27;45345;-84
2022/01/29 10:13:52;;;;;;;1.23;0.73;;;16.90;59.20;;;;;;5144567;27;47344;-82
2022/01/29 10:16:23;;;;;;;3.45;0.88;;;16.80;59.00;;;;;;5150306;27;45169;-83
2022/01/29 10:19:00;;;;;;;1.75;0.60;;;16.80;59.20;;;;;;5150960;27;45326;-81
2022/01/29 10:21:29;;;;;;;3.28;0.63;;;16.80;59.30;;;;;;5149320;27;45324;-82
2022/01/29 10:24:05;;;;;;;8.98;0.65;;;16.80;59.20;;;;;;5147149;27;47043;-83
2022/01/29 10:26:34;;;;;;;1.25;0.50;;;16.80;59.20;;;;;;5150001;27;45573;-83
2022/01/29 10:29:02;;;;;;;0.65;0.50;;;16.80;59.30;;;;;;5151301;27;45262;-85
2022/01/29 10:31:52;;;;;;;2.28;0.40;;;16.80;59.30;;;;;;5149022;27;45261;-83
2022/01/29 10:34:23;;;;;;;2.00;0.50;;;16.90;58.90;;;;;;5143671;27;47652;-83
2022/01/29 10:37:14;;;;;;;1.13;0.60;;;16.90;58.90;;;;;;5147407;27;45594;-83
2022/01/29 10:39:42;;;;;;;5.43;0.65;;;16.90;58.80;;;;;;5150366;27;45247;-83
2022/01/29 10:42:17;;;;;;;2.60;0.38;;;16.90;58.60;;;;;;5150842;27;45671;-82
2022/01/29 10:44:45;;;;;;;2.58;0.40;;;17.00;58.80;;;;;;5148991;27;46389;-81
2022/01/29 10:47:13;;;;;;;3.22;0.55;;;17.00;58.20;;;;;;5146965;27;45571;-81
2022/01/29 10:49:49;;;;;;;2.63;0.60;;;17.10;58.20;;;;;;5140983;27;45292;-82
2022/01/29 10:52:17;;;;;;;1.85;0.40;;;17.10;58.70;;;;;;5145643;27;45231;-81
2022/01/29 10:54:47;;;;;;;4.35;0.60;;;17.00;59.00;;;;;;5150401;27;48773;-82
2022/01/29 10:57:16;;;;;;;6.93;0.65;;;17.00;59.20;;;;;;5149640;27;45239;-81
2022/01/29 10:59:48;;;;;;;0.52;0.30;;;16.90;58.60;;;;;;5151797;27;45367;-85
2022/01/29 11:02:17;;;;;;;1.35;0.20;;;16.90;59.00;;;;;;5150409;27;45451;-83
2022/01/29 11:04:45;;;;;;;2.53;0.30;;;16.90;59.50;;;;;;5149996;27;47177;-83
2022/01/29 11:07:16;;;;;;;1.20;0.40;;;16.90;60.00;;;;;;5148444;27;45927;-83
2022/01/29 11:09:45;;;;;;;1.58;0.55;;;16.80;59.80;;;;;;5143844;27;45423;-82
2022/01/29 11:12:17;;;;;;;0.47;0.28;;;16.80;60.20;;;;;;5146202;27;45272;-83
2022/01/29 11:14:45;;;;;;;5.55;0.60;;;16.80;60.20;;;;;;5148023;27;47426;-84
2022/01/29 11:17:15;;;;;;;0.63;0.30;;;16.80;60.30;;;;;;5149339;27;45650;-84
2022/01/29 11:19:44;;;;;;;1.65;0.40;;;16.80;60.30;;;;;;5148448;27;46257;-83
2022/01/29 11:22:12;;;;;;;0.50;0.30;;;16.80;60.00;;;;;;5157306;27;45509;-84
2022/01/29 11:24:43;;;;;;;0.82;0.30;;;16.80;60.00;;;;;;5149213;27;47353;-84
2022/01/29 11:27:21;;;;;;;0.70;0.40;;;16.80;60.00;;;;;;5140049;27;45467;-82
2022/01/29 11:29:58;;;;;;;0.13;0.10;;;16.80;60.00;;;;;;5140355;27;45176;-83
2022/01/29 11:32:32;;;;;;;0.40;0.28;;;16.80;60.90;;;;;;5142764;27;45392;-83
2022/01/29 11:35:10;;;;;;;1.45;0.40;;;16.80;60.20;;;;;;5149099;27;46501;-83
2022/01/29 11:37:38;;;;;;;0.40;0.22;;;16.80;60.60;;;;;;5150055;27;45341;-88
2022/01/29 11:40:12;;;;;;;0.40;0.20;;;16.80;60.20;;;;;;5150804;27;45394;-87
2022/01/29 11:42:51;;;;;;;2.97;0.40;;;16.90;61.00;;;;;;5150623;27;45278;-83
2022/01/29 11:45:41;;;;;;;0.60;0.20;;;16.90;61.10;;;;;;5138793;27;47341;-83
2022/01/29 11:48:31;;;;;;;0.35;0.20;;;16.90;61.40;;;;;;5147598;27;45164;-85
2022/01/29 11:51:01;;;;;;;0.85;0.40;;;16.90;61.20;;;;;;5148075;27;45338;-88
2022/01/29 11:53:58;;;;;;;0.40;0.30;;;16.90;61.20;;;;;;5149564;27;45466;-87
2022/01/29 11:56:30;;;;;;;0.10;0.10;;;16.80;61.10;;;;;;5144321;27;47419;-85
2022/01/29 11:59:32;;;;;;;0.65;0.40;;;16.80;61.30;;;;;;5149836;27;45534;-87
2022/01/29 12:02:02;;;;;;;0.65;0.20;;;16.80;60.50;;;;;;5149879;27;45210;-86
2022/01/29 12:05:10;;;;;;;0.35;0.30;;;16.80;60.60;;;;;;5144602;27;45186;-86
2022/01/29 12:08:09;;;;;;;3.45;0.30;;;16.80;61.20;;;;;;5143991;27;47571;-85
2022/01/29 12:10:40;;;;;;;31.98;3.65;;;16.80;60.60;;;;;;5140567;27;45391;-76
2022/01/29 12:13:12;;;;;;;4.47;0.82;;;16.90;61.70;;;;;;5146242;27;45771;-76
2022/01/29 12:15:39;;;;;;;4.80;0.85;;;16.90;60.80;;;;;;5146183;27;45207;-77
2022/01/29 12:18:25;;;;;;;4.13;0.52;;;16.90;61.20;;;;;;5143985;27;45464;-77
2022/01/29 12:20:52;;;;;;;2.72;0.60;;;16.90;61.60;;;;;;5141263;27;45679;-76
2022/01/29 12:23:19;;;;;;;4.50;0.68;;;16.90;61.90;;;;;;5142732;27;45679;-76
2022/01/29 12:25:55;;;;;;;4.18;0.55;;;16.90;61.70;;;;;;5147929;27;45221;-76
2022/01/29 12:28:22;;;;;;;2.88;0.55;;;16.90;62.20;;;;;;5146499;27;47582;-76
2022/01/29 12:30:49;;;;;;;0.60;0.30;;;16.90;62.00;;;;;;5141974;27;45985;-76
2022/01/29 12:33:17;;;;;;;1.40;0.47;;;16.90;62.40;;;;;;5137871;27;45207;-76
2022/01/29 12:35:46;;;;;;;1.80;0.50;;;16.90;62.20;;;;;;5140242;27;45420;-76
2022/01/29 12:38:15;;;;;;;1.38;0.40;;;17.00;62.70;;;;;;5145124;27;48099;-76
2022/01/29 12:40:52;;;;;;;3.00;0.35;;;17.00;62.80;;;;;;5147228;27;45480;-76
2022/01/29 12:43:31;;;;;;;3.47;0.40;;;17.00;62.90;;;;;;5143867;27;45308;-76
2022/01/29 12:46:09;;;;;;;1.52;0.57;;;17.10;62.90;;;;;;5138478;27;45234;-76
2022/01/29 12:48:38;;;;;;;1.27;0.43;;;17.10;62.90;;;;;;5145971;27;47993;-76
2022/01/29 12:51:06;;;;;;;1.80;0.20;;;17.10;62.90;;;;;;5138714;27;45969;-75
2022/01/29 12:53:33;;;;;;;2.28;0.45;;;17.10;63.10;;;;;;5138214;27;45177;-75
2022/01/29 12:56:01;;;;;;;4.65;0.60;;;17.10;63.00;;;;;;5141687;27;45550;-75
2022/01/29 12:58:32;;;;;;;0.35;0.30;;;17.10;63.30;;;;;;5140572;27;46465;-75
2022/01/29 13:01:05;;;;;;;0.50;0.22;;;17.10;63.40;;;;;;5139333;27;45446;-76
2022/01/29 13:03:32;;;;;;;1.63;0.30;;;17.10;63.60;;;;;;5143179;27;45179;-76
2022/01/29 13:06:06;;;;;;;2.28;0.20;;;17.10;63.50;;;;;;5145002;27;45235;-76
2022/01/29 13:08:33;;;;;;;1.13;0.40;;;17.10;63.60;;;;;;5146406;27;47386;-76
2022/01/29 13:11:00;;;;;;;0.10;0.10;;;17.10;63.50;;;;;;5148530;27;45508;-76
2022/01/29 13:13:30;;;;;;;0.68;0.32;;;17.10;63.60;;;;;;5140954;27;45257;-76
2022/01/29 13:15:58;;;;;;;0.40;0.30;;;17.20;63.80;;;;;;5144445;27;45441;-76
2022/01/29 13:18:25;;;;;;;1.17;0.30;;;17.20;63.60;;;;;;5141120;27;46135;-76
2022/01/29 13:20:53;;;;;;;0.20;0.20;;;17.10;63.60;;;;;;5145740;27;45288;-75
2022/01/29 13:23:20;;;;;;;0.20;0.20;;;17.10;63.80;;;;;;5147456;27;45248;-76